createdAt,value
2019-05-26T00:02:13.713Z,46.30
2019-05-26T00:15:20.985Z,46.50
2019-05-26T00:28:45.189Z,46.70
2019-05-26T00:42:08.096Z,46.80
2019-05-26T00:55:30.858Z,47.00
2019-05-26T01:08:53.568Z,47.00
2019-05-26T01:22:16.443Z,47.10
2019-05-26T02:02:19.963Z,47.40
2019-05-26T02:15:27.141Z,47.40
2019-05-26T02:28:34.532Z,47.50
2019-05-26T02:41:41.662Z,47.40
2019-05-26T02:54:48.779Z,47.40
2019-05-26T03:07:55.896Z,47.40
2019-05-26T03:21:19.826Z,47.40
2019-05-26T03:34:42.621Z,47.40
2019-05-26T03:48:05.412Z,47.50
2019-05-26T04:15:03.176Z,47.60
2019-05-26T04:28:10.318Z,47.60
2019-05-26T04:41:17.458Z,47.70
2019-05-26T05:08:05.971Z,47.70
2019-05-26T05:21:28.819Z,47.70
2019-05-26T05:34:51.760Z,47.70
2019-05-26T05:48:14.430Z,47.70
2019-05-26T06:14:38.811Z,47.80
2019-05-26T06:27:45.996Z,47.90
2019-05-26T06:54:52.251Z,47.90
2019-05-26T07:08:14.906Z,47.90
2019-05-26T07:21:37.810Z,47.90
2019-05-26T07:35:00.579Z,47.90
2019-05-26T07:48:23.554Z,47.70
2019-05-26T08:01:46.220Z,47.70
2019-05-26T08:15:08.979Z,48.00
2019-05-26T08:28:31.843Z,48.00
2019-05-26T08:41:54.689Z,48.00
2019-05-26T08:55:17.579Z,47.80
2019-05-26T09:08:40.365Z,47.60
2019-05-26T09:22:03.385Z,47.70
2019-05-26T09:35:26.076Z,47.60
2019-05-26T09:48:48.740Z,47.50
2019-05-26T10:02:11.564Z,48.00
2019-05-26T10:15:34.346Z,47.30
2019-05-26T10:29:00.210Z,47.30
2019-05-26T10:42:19.983Z,47.40
2019-05-26T10:55:42.874Z,48.00
2019-05-26T11:09:05.770Z,48.40
2019-05-26T11:22:28.753Z,48.60
2019-05-26T11:35:52.340Z,49.00
2019-05-26T11:49:14.195Z,49.60
2019-05-26T12:42:24.474Z,50.20
2019-05-26T12:55:31.825Z,50.20
2019-05-26T13:08:39.152Z,50.00
2019-05-26T13:33:03.940Z,50.10
2019-05-26T13:46:22.818Z,50.10
2019-05-26T14:12:47.179Z,49.90
2019-05-26T14:39:54.143Z,50.00
2019-05-26T15:31:14.292Z,50.10
2019-05-26T15:57:38.724Z,50.10
2019-05-26T16:24:45.593Z,49.70
2019-05-26T16:38:08.481Z,49.60
2019-05-26T17:06:07.096Z,50.00
2019-05-26T17:19:22.301Z,50.00
2019-05-26T17:32:45.158Z,50.20
2019-05-26T17:59:43.035Z,51.20
2019-05-26T19:12:08.998Z,51.90
2019-05-26T19:25:31.735Z,51.90
2019-05-26T19:38:54.527Z,52.00
2019-05-26T19:52:17.444Z,52.20
2019-05-26T20:05:40.224Z,52.20
2019-05-26T20:19:02.986Z,52.20
2019-05-26T20:45:27.676Z,52.30
2019-05-26T20:58:34.777Z,52.20
2019-05-26T21:11:41.893Z,52.20
2019-05-26T21:24:49.030Z,52.20
2019-05-26T21:37:56.303Z,52.30
2019-05-26T21:51:03.473Z,52.30
2019-05-26T22:17:28.886Z,52.30
2019-05-26T22:30:36.109Z,52.20
2019-05-26T22:43:43.468Z,52.20
2019-05-26T22:56:50.701Z,52.20
2019-05-26T23:09:57.823Z,52.40
2019-05-26T23:23:05.294Z,52.40
